Auki, Solomon Islands
Current Conditions -  °F | °C
As of 10:00 AM on Thursday 23 Oct 2014 (Local Time) from AGGH Reporting Station
Haze Haze  
Wind Chill: 86°   Ceiling: Unl
Heat Index: 95°   Visibility: 6mi
Dew Point: 75°   Wind: 7mph
Humidity: 70%   Direction: 20°NNE
Pressure: 29.83"   Gusts: NA
Location:  8.76°S, 160.7°E
Report Text: AGGH 222300Z 02006KT 9999 HZ FEW019 FEW020CB SCT300 30/24 Q1010
Loading
Personal Weather Stations






























Interactive Weather Map
Tropical Storm Tracking
New forecast layout! Learn more

10-Day Weather Forecast

Advertisements
Track Severe Weather on mobile